Aérodrome :
LOGIN :

S'inscrire | Disclaimer

   EN    FR    IT 

 










Légende :    VFR   VFR Marginal   IFR   IFR Intensif   IFR Très Intensif
Visi : 
Plafond : 
>= 8 km
>= 3000ft
5 à 8 km
1000 à 3000 ft
1500m à 5 km
500 à 1000 ft
800 à 1500m
200 à 500 ft
< 800m
< 200 ft
Symboles :   Orages  Brouillard  Fortes neiges  Fortes précipitations  Vent > 20 kt
SIGMETs :   Divers  Orages  Givrage  Turbulence  Onde Orograph.  Cendres Volcan.






- Altitude de l'aérodrome : 755 ft
- Code IATA : KSC


LZKZ - Kosice

DERNIER METAR :
  • 271200Z VRB02KT 9999 FEW020 BKN030 14/10 Q1001 NOSIG

METARs EXPIRÉS :
  • 271130Z VRB01KT 9999 FEW015 BKN022 14/11 Q1002 NOSIG
  • 271100Z 28004KT 250V320 9999 SCT012 BKN020 13/10 Q1002 NOSIG
  • 271030Z 21003KT 190V250 9999 SCT010 OVC015 13/11 Q1002 NOSIG
  • 271000Z 17003KT 120V220 9999 OVC010 12/10 Q1002 NOSIG
  • 270930Z VRB03KT 9999 SCT007 OVC013 12/10 Q1003 NOSIG

TAF TAF LZKZ
Valide du 27 à 12h jusqu'au 28 à 12h UTC


271115Z 2712/2812 21006KT 9999 FEW010 OVC025
TEMPO 2713/2802 2500 RA BKN005 OVC012
TEMPO 2802/2807 1600 BCFG BKN003
BECMG 2807/2809 27008KT SCT045



MET'MAP, la Météo Aéronautique d'un coup d'oeil ! - Copyright ORBIFLY Décembre 2007 - Disclaimer

ORBIFLY MET'MAP TEAM :

Programmation & Développement : Alexandra Zaïnal
Sur une idée originale de : Baudouin d'Aumeries
Soutien technique & logistique : Manuel Goepfert
Assistance : Marc-Olivier Méhu




SOURCES & CREDITS :

   NOAA